Terminal Aerodrome Forecast
Issued by NWS

Home | Current Version | Previous Version | Text Only | Print | Product List | Glossary On
Versions: 1 2 3 4 5 6 7 8 9 10 11 12 13 14 15 16 17
681
FTUS44 KEWX 021820 AAA
TAFSSF
TAF AMD
KSSF 021820Z 0218/0318 07009KT 6SM -SHRA BKN018 OVC035
     FM030900 03010KT 2SM SHRA BR OVC004=

USA.gov is the U.S. government's official web portal to all federal, state and local government web resources and services.